createdAt,value
2022-12-13T00:02:01.016Z,10.25
2022-12-13T00:04:35.427Z,9.25
2022-12-13T00:07:09.264Z,9.65
2022-12-13T00:09:43.610Z,9.55
2022-12-13T00:12:19.234Z,9.82
2022-12-13T00:14:53.865Z,9.70
2022-12-13T00:17:31.173Z,9.80
2022-12-13T00:20:05.378Z,9.25
2022-12-13T00:22:39.039Z,8.95
2022-12-13T00:25:13.787Z,9.75
2022-12-13T00:27:48.268Z,9.68
2022-12-13T00:30:22.460Z,8.93
2022-12-13T00:32:59.123Z,8.50
2022-12-13T00:35:33.917Z,9.20
2022-12-13T00:38:08.251Z,9.95
2022-12-13T00:40:42.554Z,8.70
2022-12-13T00:43:17.734Z,9.23
2022-12-13T00:45:52.921Z,10.13
2022-12-13T00:48:30.378Z,10.10
2022-12-13T00:51:08.378Z,9.60
2022-12-13T00:53:42.000Z,10.52
2022-12-13T00:56:14.818Z,10.75
2022-12-13T00:58:52.062Z,9.63
2022-12-13T01:01:27.214Z,8.85
2022-12-13T01:04:04.114Z,9.93
2022-12-13T01:06:39.695Z,9.50
2022-12-13T01:09:18.445Z,9.82
2022-12-13T01:11:53.213Z,9.40
2022-12-13T01:14:27.402Z,9.03
2022-12-13T01:17:02.496Z,8.93
2022-12-13T01:19:39.976Z,9.02
2022-12-13T01:22:14.438Z,8.98
2022-12-13T01:24:48.482Z,9.15
2022-12-13T01:27:23.550Z,8.13
2022-12-13T01:29:58.715Z,8.40
2022-12-13T01:32:33.823Z,9.25
2022-12-13T01:35:14.262Z,8.63
2022-12-13T01:37:47.995Z,8.00
2022-12-13T01:40:22.588Z,8.65
2022-12-13T01:43:01.762Z,8.40
2022-12-13T01:45:48.277Z,9.10
2022-12-13T01:48:23.941Z,8.48
2022-12-13T01:51:02.431Z,7.90
2022-12-13T01:53:38.173Z,8.55
2022-12-13T01:56:13.441Z,8.13
2022-12-13T01:58:46.112Z,8.10
2022-12-13T02:01:20.586Z,7.13
2022-12-13T02:03:55.283Z,8.85
2022-12-13T02:06:35.132Z,7.67
2022-12-13T02:09:09.953Z,7.65
2022-12-13T02:11:45.012Z,7.97
2022-12-13T02:14:19.306Z,7.22
2022-12-13T02:16:56.016Z,7.85
2022-12-13T02:20:10.398Z,7.80
2022-12-13T02:22:58.371Z,7.75
2022-12-13T02:25:42.819Z,7.50
2022-12-13T02:28:31.300Z,6.45
2022-12-13T02:31:11.371Z,6.78
2022-12-13T02:33:50.402Z,7.50
2022-12-13T02:36:27.259Z,6.28
2022-12-13T02:39:02.707Z,7.30
2022-12-13T02:41:39.146Z,6.20
2022-12-13T02:44:22.344Z,7.03
2022-12-13T02:47:01.220Z,6.90
2022-12-13T02:49:37.819Z,7.50
2022-12-13T02:52:12.807Z,6.47
2022-12-13T02:54:47.160Z,7.10
2022-12-13T02:57:32.820Z,7.15
2022-12-13T03:00:11.563Z,7.00
2022-12-13T03:02:56.798Z,7.30
2022-12-13T03:05:46.451Z,7.40
2022-12-13T03:08:24.750Z,6.93
2022-12-13T03:11:04.536Z,7.32
2022-12-13T03:13:41.686Z,7.35
2022-12-13T03:16:30.431Z,7.03
2022-12-13T03:19:08.738Z,7.78
2022-12-13T03:21:47.647Z,7.22
2022-12-13T03:24:23.014Z,6.63
2022-12-13T03:26:57.146Z,8.15
2022-12-13T03:29:31.530Z,7.82
2022-12-13T03:32:06.417Z,7.75
2022-12-13T03:34:44.850Z,7.80
2022-12-13T03:37:19.910Z,7.25
2022-12-13T03:39:54.438Z,7.70
2022-12-13T03:42:28.252Z,7.07
2022-12-13T03:45:02.857Z,7.45
2022-12-13T03:47:37.068Z,7.93
2022-12-13T03:50:26.763Z,8.13
2022-12-13T03:53:04.137Z,7.70
2022-12-13T03:55:38.428Z,7.10
2022-12-13T03:58:12.757Z,7.47
2022-12-13T04:00:47.060Z,6.65
2022-12-13T04:03:21.460Z,8.27
2022-12-13T04:05:58.406Z,6.75
2022-12-13T04:08:32.571Z,7.30
2022-12-13T04:11:27.576Z,6.70
2022-12-13T04:13:59.409Z,7.55
2022-12-13T04:16:34.042Z,6.40
2022-12-13T04:19:07.971Z,7.55
2022-12-13T04:21:45.313Z,8.30
2022-12-13T04:24:19.416Z,9.30
2022-12-13T04:26:53.394Z,8.52
2022-12-13T04:29:27.545Z,8.98
2022-12-13T04:32:26.341Z,8.68
2022-12-13T04:35:01.738Z,7.63
2022-12-13T04:37:38.923Z,9.00
2022-12-13T04:40:21.759Z,8.60
2022-12-13T04:42:57.746Z,7.30
2022-12-13T04:45:32.084Z,8.65
2022-12-13T04:48:06.325Z,8.30
2022-12-13T04:50:40.988Z,8.20
2022-12-13T04:53:20.418Z,8.18
2022-12-13T04:55:54.590Z,8.68
2022-12-13T04:58:29.243Z,8.63
2022-12-13T05:01:03.218Z,8.73
2022-12-13T05:03:37.681Z,9.02
2022-12-13T05:06:26.669Z,9.52
2022-12-13T05:09:05.321Z,8.20
2022-12-13T05:11:46.554Z,10.15
2022-12-13T05:14:23.240Z,12.70
2022-12-13T05:16:58.068Z,11.53
2022-12-13T05:19:31.901Z,9.98
2022-12-13T05:22:06.464Z,9.98
2022-12-13T05:24:47.263Z,8.95
2022-12-13T05:27:24.948Z,8.77
2022-12-13T05:30:02.785Z,8.90
2022-12-13T05:32:44.310Z,9.33
2022-12-13T05:35:23.027Z,8.93
2022-12-13T05:37:58.040Z,9.38
2022-12-13T05:40:35.798Z,9.85
2022-12-13T05:43:22.251Z,9.75
2022-12-13T05:45:57.721Z,9.95
2022-12-13T05:48:32.292Z,9.83
2022-12-13T05:51:10.815Z,11.10
2022-12-13T05:53:51.539Z,10.73
2022-12-13T05:56:29.992Z,11.00
2022-12-13T05:59:04.277Z,10.68
2022-12-13T06:01:38.136Z,10.80
2022-12-13T06:04:22.355Z,11.60
2022-12-13T06:06:55.284Z,11.77
2022-12-13T06:09:30.978Z,12.60
2022-12-13T06:12:06.137Z,13.43
2022-12-13T06:15:00.846Z,11.50
2022-12-13T06:17:36.590Z,12.30
2022-12-13T06:20:24.427Z,11.40
2022-12-13T06:22:59.174Z,12.02
2022-12-13T06:25:33.203Z,12.97
2022-12-13T06:28:10.132Z,12.70
2022-12-13T06:30:44.424Z,9.70
2022-12-13T06:33:23.308Z,10.50
2022-12-13T06:36:00.031Z,10.68
2022-12-13T06:38:34.713Z,10.15
2022-12-13T06:41:19.311Z,9.30
2022-12-13T06:43:55.883Z,8.75
2022-12-13T06:46:30.269Z,9.65
2022-12-13T06:49:05.683Z,8.75
2022-12-13T06:51:40.068Z,8.60
2022-12-13T06:54:15.493Z,8.30
2022-12-13T06:56:49.513Z,7.45
2022-12-13T06:59:26.490Z,8.73
2022-12-13T07:02:03.109Z,9.07
2022-12-13T07:04:38.337Z,7.90
2022-12-13T07:07:12.178Z,9.38
2022-12-13T07:09:46.057Z,10.02
2022-12-13T07:12:21.391Z,8.13
2022-12-13T07:14:58.229Z,10.10
2022-12-13T07:17:34.588Z,10.70
2022-12-13T07:20:10.642Z,10.68
2022-12-13T07:22:49.209Z,9.90
2022-12-13T07:25:27.159Z,12.80
2022-12-13T07:28:05.529Z,13.43
2022-12-13T07:30:43.116Z,11.90
2022-12-13T07:33:22.158Z,11.30
2022-12-13T07:36:03.522Z,13.00
2022-12-13T07:38:38.270Z,13.27
2022-12-13T07:41:12.196Z,11.40
2022-12-13T07:43:46.654Z,13.00
2022-12-13T07:46:33.256Z,13.88
2022-12-13T07:49:10.281Z,13.83
2022-12-13T07:51:46.563Z,14.95
2022-12-13T07:54:23.158Z,14.80
2022-12-13T07:57:04.159Z,14.35
2022-12-13T07:59:38.319Z,13.82
2022-12-13T08:02:16.656Z,13.15
2022-12-13T08:04:54.312Z,13.52
2022-12-13T08:07:34.069Z,14.30
2022-12-13T08:10:06.598Z,13.75
2022-12-13T08:12:43.437Z,13.00
2022-12-13T08:15:19.362Z,13.25
2022-12-13T08:18:01.825Z,12.27
2022-12-13T08:20:35.883Z,13.38
2022-12-13T08:23:11.556Z,13.73
2022-12-13T08:25:49.531Z,12.52
2022-12-13T08:28:25.283Z,11.70
2022-12-13T08:31:08.062Z,12.57
2022-12-13T08:33:47.931Z,11.90
2022-12-13T08:36:24.466Z,12.15
2022-12-13T08:39:03.189Z,10.63
2022-12-13T08:41:39.456Z,11.70
2022-12-13T08:44:15.998Z,11.40
2022-12-13T08:46:51.264Z,10.68
2022-12-13T08:49:29.040Z,11.65
2022-12-13T08:52:04.037Z,10.50
2022-12-13T08:54:40.061Z,10.77
2022-12-13T08:57:16.627Z,11.65
2022-12-13T09:00:00.441Z,11.20
2022-12-13T09:02:38.098Z,9.00
2022-12-13T09:05:33.745Z,9.70
2022-12-13T09:08:23.048Z,9.15
2022-12-13T09:11:01.208Z,10.60
2022-12-13T09:13:47.928Z,10.30
2022-12-13T09:16:24.661Z,10.10
2022-12-13T09:19:00.213Z,10.90
2022-12-13T09:22:02.715Z,9.52
2022-12-13T09:24:38.807Z,9.93
2022-12-13T09:27:27.621Z,9.40
2022-12-13T09:30:01.501Z,10.25
2022-12-13T09:32:35.610Z,10.88
2022-12-13T09:35:12.284Z,10.80
2022-12-13T09:37:49.334Z,9.57
2022-12-13T09:40:26.128Z,10.20
2022-12-13T09:43:12.423Z,8.98
2022-12-13T09:45:48.852Z,9.40
2022-12-13T09:48:24.735Z,8.32
2022-12-13T09:51:17.145Z,8.60
2022-12-13T09:53:57.473Z,9.95
2022-12-13T09:56:31.597Z,8.90
2022-12-13T09:59:06.808Z,9.43
2022-12-13T10:01:42.206Z,7.93
2022-12-13T10:04:16.979Z,8.40
2022-12-13T10:06:54.505Z,8.73
2022-12-13T10:09:29.028Z,8.25
2022-12-13T10:12:07.604Z,9.43
2022-12-13T10:14:46.279Z,8.48
2022-12-13T10:17:23.727Z,8.23
2022-12-13T10:20:00.453Z,9.90
2022-12-13T10:22:37.315Z,9.48
2022-12-13T10:25:12.524Z,9.27
2022-12-13T10:27:50.558Z,8.90
2022-12-13T10:30:29.155Z,8.27
2022-12-13T10:33:04.728Z,8.48
2022-12-13T10:35:41.785Z,9.17
2022-12-13T10:38:32.067Z,7.95
2022-12-13T10:41:28.683Z,9.18
2022-12-13T10:44:23.427Z,8.33
2022-12-13T10:47:08.718Z,8.52
2022-12-13T10:49:44.358Z,8.23
2022-12-13T10:52:31.405Z,7.83
2022-12-13T10:55:22.935Z,7.72
2022-12-13T10:57:59.873Z,8.50
2022-12-13T11:00:41.170Z,8.25
2022-12-13T11:03:17.440Z,9.02
2022-12-13T11:08:30.469Z,8.48
2022-12-13T11:11:06.684Z,8.77
2022-12-13T11:13:42.644Z,7.80
2022-12-13T11:16:25.406Z,8.02
2022-12-13T11:19:01.977Z,7.68
2022-12-13T11:21:39.546Z,7.55
2022-12-13T11:24:22.884Z,6.75
2022-12-13T11:26:59.638Z,6.82
2022-12-13T11:29:50.980Z,7.45
2022-12-13T11:32:34.293Z,7.00
2022-12-13T11:35:13.451Z,8.00
2022-12-13T11:37:51.619Z,7.50
2022-12-13T11:40:27.433Z,8.20
2022-12-13T11:43:02.954Z,6.88
2022-12-13T11:45:40.343Z,7.22
2022-12-13T11:48:21.163Z,8.20
2022-12-13T11:50:56.739Z,6.80
2022-12-13T11:53:33.695Z,7.25
2022-12-13T11:56:10.620Z,7.22
2022-12-13T11:59:07.090Z,7.03
2022-12-13T12:01:44.559Z,6.80
2022-12-13T12:04:22.840Z,7.80
2022-12-13T12:07:17.939Z,6.15
2022-12-13T12:09:59.845Z,6.47
2022-12-13T12:12:34.950Z,6.97
2022-12-13T12:15:15.549Z,6.07
2022-12-13T12:17:50.509Z,6.22
2022-12-13T12:20:30.139Z,6.57
2022-12-13T12:23:06.128Z,6.88
2022-12-13T12:25:44.216Z,6.65
2022-12-13T12:28:21.583Z,5.70
2022-12-13T12:30:58.962Z,5.97
2022-12-13T12:33:35.929Z,6.63
2022-12-13T12:36:16.995Z,5.75
2022-12-13T12:39:28.877Z,6.18
2022-12-13T12:42:01.690Z,6.20
2022-12-13T12:44:37.320Z,6.15
2022-12-13T12:47:46.362Z,6.25
2022-12-13T12:50:18.309Z,6.50
2022-12-13T12:53:03.586Z,6.53
2022-12-13T12:55:49.436Z,6.63
2022-12-13T12:58:28.727Z,7.03
2022-12-13T13:01:11.283Z,6.50
2022-12-13T13:03:46.572Z,6.10
2022-12-13T13:06:20.589Z,6.20
2022-12-13T13:08:59.967Z,6.43
2022-12-13T13:11:33.377Z,6.27
2022-12-13T13:14:10.103Z,6.68
2022-12-13T13:16:45.088Z,6.40
2022-12-13T13:19:44.154Z,5.75
2022-12-13T13:22:34.949Z,7.53
2022-12-13T13:26:00.348Z,6.80
2022-12-13T13:28:33.391Z,6.75
2022-12-13T13:31:09.489Z,6.68
2022-12-13T13:36:52.802Z,7.65
2022-12-13T13:39:25.397Z,5.55
2022-12-13T13:42:12.369Z,6.18
2022-12-13T13:47:41.942Z,6.25
2022-12-13T13:50:58.327Z,6.85
2022-12-13T13:53:53.194Z,7.20
2022-12-13T13:56:55.155Z,7.38
2022-12-13T14:00:12.621Z,6.35
2022-12-13T14:03:34.846Z,6.77
2022-12-13T14:06:32.964Z,7.10
2022-12-13T14:09:38.338Z,7.13
2022-12-13T14:12:36.411Z,6.85
2022-12-13T14:15:50.477Z,6.68
2022-12-13T14:19:01.059Z,7.60
2022-12-13T14:21:56.146Z,7.20
2022-12-13T14:24:53.710Z,7.23
2022-12-13T14:27:40.103Z,6.27
2022-12-13T14:30:33.377Z,7.43
2022-12-13T14:33:09.031Z,9.10
2022-12-13T14:35:53.554Z,8.20
2022-12-13T14:38:34.179Z,7.70
2022-12-13T14:41:09.310Z,8.57
2022-12-13T14:43:49.881Z,9.45
2022-12-13T14:46:27.711Z,7.80
2022-12-13T14:49:07.502Z,7.47
2022-12-13T14:51:41.601Z,8.02
2022-12-13T14:54:26.070Z,7.75
2022-12-13T14:57:01.317Z,8.93
2022-12-13T14:59:36.416Z,9.00
2022-12-13T15:02:17.528Z,8.40
2022-12-13T15:05:05.772Z,8.30
2022-12-13T15:07:39.444Z,8.18
2022-12-13T15:10:24.872Z,8.63
2022-12-13T15:12:59.824Z,7.33
2022-12-13T15:15:36.672Z,7.95
2022-12-13T15:18:20.602Z,8.27
2022-12-13T15:21:00.741Z,7.15
2022-12-13T15:23:41.719Z,7.10
2022-12-13T15:26:49.528Z,6.82
2022-12-13T15:29:26.177Z,6.90
2022-12-13T15:32:01.399Z,7.30
2022-12-13T15:34:40.037Z,8.25
2022-12-13T15:37:28.973Z,9.38
2022-12-13T15:40:11.885Z,9.25
2022-12-13T15:42:50.182Z,9.43
2022-12-13T15:45:30.473Z,9.35
2022-12-13T15:48:09.479Z,9.00
2022-12-13T15:50:48.950Z,10.40
2022-12-13T15:53:26.271Z,9.45
2022-12-13T15:56:04.743Z,9.35
2022-12-13T15:58:44.899Z,11.38
2022-12-13T16:01:18.649Z,11.63
2022-12-13T16:03:53.519Z,12.85
2022-12-13T16:06:28.819Z,13.80
2022-12-13T16:09:04.501Z,12.07
2022-12-13T16:11:42.338Z,13.30
2022-12-13T16:14:49.617Z,13.13
2022-12-13T16:17:26.534Z,14.73
2022-12-13T16:20:07.799Z,14.38
2022-12-13T16:22:43.190Z,15.82
2022-12-13T16:25:19.492Z,15.73
2022-12-13T16:27:53.568Z,19.13
2022-12-13T16:30:32.526Z,17.83
2022-12-13T16:33:26.598Z,19.20
2022-12-13T16:36:02.470Z,19.80
2022-12-13T16:38:36.243Z,17.55
2022-12-13T16:41:11.177Z,17.65
2022-12-13T16:43:52.844Z,16.30
2022-12-13T16:47:12.089Z,17.05
2022-12-13T16:49:25.533Z,15.27
2022-12-13T16:51:59.874Z,16.40
2022-12-13T16:54:34.638Z,18.17
2022-12-13T16:57:09.251Z,17.60
2022-12-13T16:59:44.150Z,20.00
2022-12-13T17:02:21.800Z,19.15
2022-12-13T17:04:57.459Z,18.20
2022-12-13T17:07:33.750Z,15.38
2022-12-13T17:10:08.599Z,15.75
2022-12-13T17:12:43.792Z,13.33
2022-12-13T17:15:18.566Z,17.23
2022-12-13T17:17:58.891Z,15.40
2022-12-13T17:20:33.740Z,15.88
2022-12-13T17:23:11.989Z,15.90
2022-12-13T17:25:58.037Z,14.05
2022-12-13T17:28:34.020Z,15.70
2022-12-13T17:31:09.800Z,15.17
2022-12-13T17:33:49.318Z,16.15
2022-12-13T17:36:23.557Z,15.90
2022-12-13T17:38:58.032Z,15.88
2022-12-13T17:41:33.518Z,15.67
2022-12-13T17:44:10.712Z,14.43
2022-12-13T17:46:55.160Z,19.15
2022-12-13T17:49:33.727Z,17.70
2022-12-13T17:52:10.792Z,18.05
2022-12-13T17:54:46.510Z,14.43
2022-12-13T17:57:20.531Z,17.85
2022-12-13T17:59:56.315Z,16.48
2022-12-13T18:02:31.163Z,17.38
2022-12-13T18:05:17.685Z,16.70
2022-12-13T18:07:53.073Z,17.77
2022-12-13T18:10:30.259Z,15.18
2022-12-13T18:13:07.519Z,16.58
2022-12-13T18:15:41.635Z,17.52
2022-12-13T18:18:18.011Z,16.45
2022-12-13T18:20:56.326Z,15.27
2022-12-13T18:23:33.306Z,15.65
2022-12-13T18:26:05.570Z,17.20
2022-12-13T18:28:41.033Z,17.48
2022-12-13T18:31:16.299Z,16.70
2022-12-13T18:33:51.730Z,17.77
2022-12-13T18:36:31.700Z,16.57
2022-12-13T18:39:07.157Z,19.13
2022-12-13T18:41:42.467Z,16.52
2022-12-13T18:44:19.045Z,18.13
2022-12-13T18:46:53.889Z,18.10
2022-12-13T18:49:29.915Z,18.00
2022-12-13T18:52:09.575Z,15.60
2022-12-13T18:54:44.483Z,18.95
2022-12-13T18:57:31.973Z,19.05
2022-12-13T19:00:08.087Z,18.95
2022-12-13T19:02:43.014Z,19.85
2022-12-13T19:05:18.034Z,19.88
2022-12-13T19:07:55.993Z,18.30
2022-12-13T19:10:30.151Z,20.70
2022-12-13T19:13:06.049Z,21.42
2022-12-13T19:15:43.100Z,21.90
2022-12-13T19:18:18.024Z,21.80
2022-12-13T19:20:53.408Z,21.50
2022-12-13T19:23:32.960Z,22.05
2022-12-13T19:26:11.294Z,24.20
2022-12-13T19:28:47.008Z,23.95
2022-12-13T19:31:27.076Z,25.60
2022-12-13T19:34:06.724Z,26.67
2022-12-13T19:36:42.464Z,32.03
2022-12-13T19:39:20.121Z,34.75
2022-12-13T19:41:54.825Z,45.30
2022-12-13T19:44:31.024Z,45.35
2022-12-13T19:47:08.810Z,42.13
2022-12-13T19:49:45.007Z,37.83
2022-12-13T19:52:20.274Z,30.77
2022-12-13T19:54:53.313Z,29.50
2022-12-13T19:57:32.628Z,29.80
2022-12-13T20:00:14.017Z,30.10
2022-12-13T20:02:50.926Z,38.47
2022-12-13T20:05:25.992Z,30.83
2022-12-13T20:08:01.831Z,28.33
2022-12-13T20:10:39.184Z,30.60
2022-12-13T20:13:16.816Z,28.40
2022-12-13T20:15:50.904Z,28.38
2022-12-13T20:18:26.948Z,27.83
2022-12-13T20:21:13.487Z,26.55
2022-12-13T20:23:50.068Z,23.30
2022-12-13T20:29:01.835Z,24.10
2022-12-13T20:31:37.776Z,20.40
2022-12-13T20:34:14.737Z,22.80
2022-12-13T20:36:50.575Z,23.85
2022-12-13T20:39:25.773Z,22.98
2022-12-13T20:42:00.930Z,23.97
2022-12-13T20:44:38.824Z,21.63
2022-12-13T20:47:14.627Z,22.17
2022-12-13T20:49:50.112Z,22.52
2022-12-13T20:52:24.810Z,24.42
2022-12-13T20:55:01.611Z,22.85
2022-12-13T20:57:37.778Z,24.25
2022-12-13T21:00:19.803Z,23.40
2022-12-13T21:02:55.225Z,21.92
2022-12-13T21:05:33.341Z,21.92
2022-12-13T21:08:21.545Z,22.20
2022-12-13T21:11:05.082Z,21.17
2022-12-13T21:13:40.740Z,24.80
2022-12-13T21:16:18.321Z,86.03
2022-12-13T21:18:57.386Z,131.07
2022-12-13T21:21:33.150Z,70.03
2022-12-13T21:24:09.346Z,50.38
2022-12-13T21:26:45.446Z,35.38
2022-12-13T21:29:24.228Z,38.28
2022-12-13T21:32:02.652Z,66.88
2022-12-13T21:34:54.777Z,34.83
2022-12-13T21:40:52.671Z,25.65
2022-12-13T21:43:48.531Z,26.42
2022-12-13T21:46:35.773Z,29.65
2022-12-13T21:49:29.331Z,31.70
2022-12-13T21:52:23.160Z,31.77
2022-12-13T21:55:29.950Z,62.35
2022-12-13T21:58:12.986Z,65.05
2022-12-13T22:00:52.114Z,44.70
2022-12-13T22:03:27.395Z,43.25
2022-12-13T22:06:06.453Z,41.00
2022-12-13T22:08:42.898Z,39.30
2022-12-13T22:11:21.450Z,45.60
2022-12-13T22:13:57.651Z,44.70
2022-12-13T22:16:34.052Z,45.15
2022-12-13T22:19:09.408Z,41.83
2022-12-13T22:21:44.867Z,43.95
2022-12-13T22:24:20.120Z,42.20
2022-12-13T22:26:54.654Z,39.22
2022-12-13T22:29:31.567Z,40.40
2022-12-13T22:32:08.076Z,40.88
2022-12-13T22:34:44.599Z,41.80
2022-12-13T22:37:21.297Z,44.10
2022-12-13T22:39:56.946Z,45.35
2022-12-13T22:42:31.421Z,44.17
2022-12-13T22:45:06.368Z,42.85
2022-12-13T22:47:41.109Z,42.38
2022-12-13T22:50:19.014Z,44.20
2022-12-13T22:52:57.076Z,42.25
2022-12-13T22:55:32.308Z,47.55
2022-12-13T22:58:07.647Z,61.50
2022-12-13T23:00:43.780Z,60.95
2022-12-13T23:03:18.325Z,65.22
2022-12-13T23:05:52.914Z,47.75
2022-12-13T23:08:30.767Z,46.63
2022-12-13T23:11:18.117Z,43.47
2022-12-13T23:13:55.932Z,44.00
2022-12-13T23:16:31.371Z,44.17
2022-12-13T23:19:39.786Z,42.45
2022-12-13T23:22:00.730Z,47.10
2022-12-13T23:24:38.421Z,45.63
2022-12-13T23:27:12.615Z,44.07
2022-12-13T23:29:47.405Z,43.53
2022-12-13T23:32:21.839Z,42.85
2022-12-13T23:34:56.391Z,43.97
2022-12-13T23:37:30.447Z,41.20
2022-12-13T23:40:07.584Z,41.78
2022-12-13T23:42:43.026Z,42.78
2022-12-13T23:45:18.701Z,43.73
2022-12-13T23:50:26.199Z,40.53
2022-12-13T23:53:01.265Z,39.05
2022-12-13T23:55:39.005Z,43.35
2022-12-13T23:58:13.618Z,43.85
